sensor_id;sensor_type;location;lat;lon;timestamp;temperature;humidity
18703;DHT22;9481;48.796;9.210;2022-09-09T00:02:22;21.10;49.20
18703;DHT22;9481;48.796;9.210;2022-09-09T00:08:09;21.00;49.10
18703;DHT22;9481;48.796;9.210;2022-09-09T00:10:36;21.00;49.20
18703;DHT22;9481;48.796;9.210;2022-09-09T00:13:46;21.00;49.40
18703;DHT22;9481;48.796;9.210;2022-09-09T00:16:16;21.00;49.50
18703;DHT22;9481;48.796;9.210;2022-09-09T00:21:14;21.00;49.20
18703;DHT22;9481;48.796;9.210;2022-09-09T00:23:54;21.00;49.30
18703;DHT22;9481;48.796;9.210;2022-09-09T00:31:37;21.00;49.60
18703;DHT22;9481;48.796;9.210;2022-09-09T00:34:13;20.90;49.50
18703;DHT22;9481;48.796;9.210;2022-09-09T00:36:45;20.90;49.80
18703;DHT22;9481;48.796;9.210;2022-09-09T00:39:37;20.90;49.80
18703;DHT22;9481;48.796;9.210;2022-09-09T00:42:41;21.00;50.20
18703;DHT22;9481;48.796;9.210;2022-09-09T00:45:42;21.00;50.20
18703;DHT22;9481;48.796;9.210;2022-09-09T00:48:11;21.00;50.20
18703;DHT22;9481;48.796;9.210;2022-09-09T00:50:52;21.00;49.90
18703;DHT22;9481;48.796;9.210;2022-09-09T00:56:22;21.00;50.00
18703;DHT22;9481;48.796;9.210;2022-09-09T01:01:26;20.90;49.70
18703;DHT22;9481;48.796;9.210;2022-09-09T01:03:56;21.00;49.80
18703;DHT22;9481;48.796;9.210;2022-09-09T01:06:36;20.90;49.80
18703;DHT22;9481;48.796;9.210;2022-09-09T01:09:24;20.90;49.70
18703;DHT22;9481;48.796;9.210;2022-09-09T01:12:23;20.90;49.70
18703;DHT22;9481;48.796;9.210;2022-09-09T01:15:14;20.90;49.60
18703;DHT22;9481;48.796;9.210;2022-09-09T01:21:02;20.90;49.40
18703;DHT22;9481;48.796;9.210;2022-09-09T01:24:02;20.90;49.50
18703;DHT22;9481;48.796;9.210;2022-09-09T01:26:46;20.90;49.30
18703;DHT22;9481;48.796;9.210;2022-09-09T01:29:15;21.00;49.20
18703;DHT22;9481;48.796;9.210;2022-09-09T01:34:25;21.00;49.20
18703;DHT22;9481;48.796;9.210;2022-09-09T01:37:07;21.00;49.10
18703;DHT22;9481;48.796;9.210;2022-09-09T01:39:38;21.00;49.10
18703;DHT22;9481;48.796;9.210;2022-09-09T01:42:09;21.00;49.60
18703;DHT22;9481;48.796;9.210;2022-09-09T01:44:38;21.00;48.90
18703;DHT22;9481;48.796;9.210;2022-09-09T01:47:04;21.00;48.90
18703;DHT22;9481;48.796;9.210;2022-09-09T01:49:31;21.00;48.90
18703;DHT22;9481;48.796;9.210;2022-09-09T01:51:58;21.00;48.90
18703;DHT22;9481;48.796;9.210;2022-09-09T01:54:28;21.00;48.80
18703;DHT22;9481;48.796;9.210;2022-09-09T01:57:58;21.00;48.80
18703;DHT22;9481;48.796;9.210;2022-09-09T02:00:22;21.00;48.90
18703;DHT22;9481;48.796;9.210;2022-09-09T02:05:55;21.00;48.60
18703;DHT22;9481;48.796;9.210;2022-09-09T02:08:49;21.00;48.50
18703;DHT22;9481;48.796;9.210;2022-09-09T02:13:47;21.00;48.30
18703;DHT22;9481;48.796;9.210;2022-09-09T02:19:29;20.90;48.40
18703;DHT22;9481;48.796;9.210;2022-09-09T02:22:00;20.90;48.40
18703;DHT22;9481;48.796;9.210;2022-09-09T02:24:30;20.80;48.40
18703;DHT22;9481;48.796;9.210;2022-09-09T02:27:02;20.80;48.50
18703;DHT22;9481;48.796;9.210;2022-09-09T02:29:39;20.70;48.50
18703;DHT22;9481;48.796;9.210;2022-09-09T02:32:16;20.80;48.70
18703;DHT22;9481;48.796;9.210;2022-09-09T02:34:48;20.70;48.70
18703;DHT22;9481;48.796;9.210;2022-09-09T02:37:19;20.70;48.70
18703;DHT22;9481;48.796;9.210;2022-09-09T02:39:47;20.70;48.70
18703;DHT22;9481;48.796;9.210;2022-09-09T02:42:13;20.60;48.70
18703;DHT22;9481;48.796;9.210;2022-09-09T02:44:40;20.60;48.80
18703;DHT22;9481;48.796;9.210;2022-09-09T02:47:46;20.60;48.90
18703;DHT22;9481;48.796;9.210;2022-09-09T02:50:23;20.60;49.10
18703;DHT22;9481;48.796;9.210;2022-09-09T02:53:39;20.60;48.90
18703;DHT22;9481;48.796;9.210;2022-09-09T02:55:47;20.60;48.90
18703;DHT22;9481;48.796;9.210;2022-09-09T02:58:17;20.60;48.90
18703;DHT22;9481;48.796;9.210;2022-09-09T03:00:47;20.60;49.00
18703;DHT22;9481;48.796;9.210;2022-09-09T03:03:15;20.60;49.10
18703;DHT22;9481;48.796;9.210;2022-09-09T03:05:43;20.60;49.10
18703;DHT22;9481;48.796;9.210;2022-09-09T03:08:09;20.60;49.30
18703;DHT22;9481;48.796;9.210;2022-09-09T03:10:35;20.50;49.10
18703;DHT22;9481;48.796;9.210;2022-09-09T03:13:03;20.50;49.30
18703;DHT22;9481;48.796;9.210;2022-09-09T03:15:31;20.50;49.30
18703;DHT22;9481;48.796;9.210;2022-09-09T03:17:58;20.50;49.40
18703;DHT22;9481;48.796;9.210;2022-09-09T03:20:26;20.50;49.60
18703;DHT22;9481;48.796;9.210;2022-09-09T03:22:54;20.50;49.60
18703;DHT22;9481;48.796;9.210;2022-09-09T03:25:21;20.50;49.60
18703;DHT22;9481;48.796;9.210;2022-09-09T03:27:49;20.50;49.60
18703;DHT22;9481;48.796;9.210;2022-09-09T03:30:22;20.50;49.60
18703;DHT22;9481;48.796;9.210;2022-09-09T03:32:49;20.50;49.60
18703;DHT22;9481;48.796;9.210;2022-09-09T03:35:16;20.50;49.70
18703;DHT22;9481;48.796;9.210;2022-09-09T03:37:42;20.50;49.70
18703;DHT22;9481;48.796;9.210;2022-09-09T03:40:08;20.50;49.60
18703;DHT22;9481;48.796;9.210;2022-09-09T03:42:38;20.50;49.60
18703;DHT22;9481;48.796;9.210;2022-09-09T03:45:06;20.40;49.50
18703;DHT22;9481;48.796;9.210;2022-09-09T03:47:34;20.40;49.60
18703;DHT22;9481;48.796;9.210;2022-09-09T03:50:00;20.40;49.50
18703;DHT22;9481;48.796;9.210;2022-09-09T03:52:26;20.40;49.70
18703;DHT22;9481;48.796;9.210;2022-09-09T03:54:53;20.30;49.70
18703;DHT22;9481;48.796;9.210;2022-09-09T03:57:19;20.30;49.80
18703;DHT22;9481;48.796;9.210;2022-09-09T03:59:45;20.30;49.80
18703;DHT22;9481;48.796;9.210;2022-09-09T04:02:11;20.30;49.80
18703;DHT22;9481;48.796;9.210;2022-09-09T04:04:37;20.30;49.80
18703;DHT22;9481;48.796;9.210;2022-09-09T04:07:02;20.30;49.90
18703;DHT22;9481;48.796;9.210;2022-09-09T04:09:31;20.30;50.00
18703;DHT22;9481;48.796;9.210;2022-09-09T04:11:57;20.20;50.00
18703;DHT22;9481;48.796;9.210;2022-09-09T04:14:22;20.20;50.00
18703;DHT22;9481;48.796;9.210;2022-09-09T04:16:48;20.20;50.10
18703;DHT22;9481;48.796;9.210;2022-09-09T04:19:14;20.10;50.10
18703;DHT22;9481;48.796;9.210;2022-09-09T04:21:41;20.10;50.20
18703;DHT22;9481;48.796;9.210;2022-09-09T04:24:07;20.00;50.30
18703;DHT22;9481;48.796;9.210;2022-09-09T04:26:35;20.00;50.30
18703;DHT22;9481;48.796;9.210;2022-09-09T04:29:03;20.00;50.40
18703;DHT22;9481;48.796;9.210;2022-09-09T04:31:29;20.00;50.50
18703;DHT22;9481;48.796;9.210;2022-09-09T04:33:55;19.90;50.50
18703;DHT22;9481;48.796;9.210;2022-09-09T04:36:21;19.90;50.50
18703;DHT22;9481;48.796;9.210;2022-09-09T04:38:47;19.90;50.70
18703;DHT22;9481;48.796;9.210;2022-09-09T04:41:16;19.80;50.70
18703;DHT22;9481;48.796;9.210;2022-09-09T04:43:42;19.80;50.80
18703;DHT22;9481;48.796;9.210;2022-09-09T04:46:07;19.80;50.80
18703;DHT22;9481;48.796;9.210;2022-09-09T04:48:34;19.80;51.00
18703;DHT22;9481;48.796;9.210;2022-09-09T04:51:01;19.80;51.00
18703;DHT22;9481;48.796;9.210;2022-09-09T04:53:30;19.80;51.30
18703;DHT22;9481;48.796;9.210;2022-09-09T04:56:08;19.80;51.60
18703;DHT22;9481;48.796;9.210;2022-09-09T04:58:39;19.80;51.70
18703;DHT22;9481;48.796;9.210;2022-09-09T05:01:13;19.90;51.50
18703;DHT22;9481;48.796;9.210;2022-09-09T05:03:44;19.90;51.50
18703;DHT22;9481;48.796;9.210;2022-09-09T05:06:13;20.00;51.40
18703;DHT22;9481;48.796;9.210;2022-09-09T05:08:41;20.10;51.40
18703;DHT22;9481;48.796;9.210;2022-09-09T05:13:45;20.20;51.30
18703;DHT22;9481;48.796;9.210;2022-09-09T05:16:12;20.30;51.30
18703;DHT22;9481;48.796;9.210;2022-09-09T05:18:39;20.30;51.20
18703;DHT22;9481;48.796;9.210;2022-09-09T05:21:07;20.30;51.10
18703;DHT22;9481;48.796;9.210;2022-09-09T05:23:33;20.40;51.30
18703;DHT22;9481;48.796;9.210;2022-09-09T05:25:59;20.40;51.20
18703;DHT22;9481;48.796;9.210;2022-09-09T05:28:26;20.50;51.10
18703;DHT22;9481;48.796;9.210;2022-09-09T05:31:04;20.50;51.00
18703;DHT22;9481;48.796;9.210;2022-09-09T05:33:34;20.50;51.10
18703;DHT22;9481;48.796;9.210;2022-09-09T05:36:03;20.50;51.00
18703;DHT22;9481;48.796;9.210;2022-09-09T05:38:31;20.50;50.90
18703;DHT22;9481;48.796;9.210;2022-09-09T05:40:59;20.60;50.90
18703;DHT22;9481;48.796;9.210;2022-09-09T05:43:26;20.60;50.80
18703;DHT22;9481;48.796;9.210;2022-09-09T05:46:03;20.60;50.70
18703;DHT22;9481;48.796;9.210;2022-09-09T05:48:31;20.60;50.80
18703;DHT22;9481;48.796;9.210;2022-09-09T05:51:00;20.60;50.60
18703;DHT22;9481;48.796;9.210;2022-09-09T05:53:28;20.50;50.60
18703;DHT22;9481;48.796;9.210;2022-09-09T05:56:06;20.50;50.60
18703;DHT22;9481;48.796;9.210;2022-09-09T05:58:38;20.50;50.80
18703;DHT22;9481;48.796;9.210;2022-09-09T06:01:09;20.50;50.80
18703;DHT22;9481;48.796;9.210;2022-09-09T06:03:38;20.40;51.00
18703;DHT22;9481;48.796;9.210;2022-09-09T06:06:07;20.40;51.10
18703;DHT22;9481;48.796;9.210;2022-09-09T06:08:35;20.40;51.10
18703;DHT22;9481;48.796;9.210;2022-09-09T06:11:11;20.40;51.30
18703;DHT22;9481;48.796;9.210;2022-09-09T06:13:39;20.40;51.40
18703;DHT22;9481;48.796;9.210;2022-09-09T06:16:15;20.30;51.30
18703;DHT22;9481;48.796;9.210;2022-09-09T06:18:42;20.30;51.50
18703;DHT22;9481;48.796;9.210;2022-09-09T06:21:16;20.30;51.60
18703;DHT22;9481;48.796;9.210;2022-09-09T06:23:46;20.30;51.80
18703;DHT22;9481;48.796;9.210;2022-09-09T06:26:18;20.30;51.70
18703;DHT22;9481;48.796;9.210;2022-09-09T06:28:45;20.30;51.90
18703;DHT22;9481;48.796;9.210;2022-09-09T06:31:14;20.30;51.80
18703;DHT22;9481;48.796;9.210;2022-09-09T06:33:48;20.30;51.90
18703;DHT22;9481;48.796;9.210;2022-09-09T06:36:18;20.30;51.90
18703;DHT22;9481;48.796;9.210;2022-09-09T06:38:48;20.40;52.10
18703;DHT22;9481;48.796;9.210;2022-09-09T06:41:16;20.40;52.10
18703;DHT22;9481;48.796;9.210;2022-09-09T06:43:44;20.40;52.20
18703;DHT22;9481;48.796;9.210;2022-09-09T06:46:12;20.40;52.20
18703;DHT22;9481;48.796;9.210;2022-09-09T06:48:40;20.40;52.40
18703;DHT22;9481;48.796;9.210;2022-09-09T06:51:30;20.40;52.40
18703;DHT22;9481;48.796;9.210;2022-09-09T06:53:59;20.50;52.90
18703;DHT22;9481;48.796;9.210;2022-09-09T06:56:28;20.40;52.50
18703;DHT22;9481;48.796;9.210;2022-09-09T06:58:57;20.50;52.60
18703;DHT22;9481;48.796;9.210;2022-09-09T07:01:27;20.50;52.80
18703;DHT22;9481;48.796;9.210;2022-09-09T07:03:55;20.60;52.80
18703;DHT22;9481;48.796;9.210;2022-09-09T07:06:29;20.60;52.70
18703;DHT22;9481;48.796;9.210;2022-09-09T07:08:58;20.70;52.80
18703;DHT22;9481;48.796;9.210;2022-09-09T07:11:28;20.70;52.80
18703;DHT22;9481;48.796;9.210;2022-09-09T07:13:58;20.80;53.00
18703;DHT22;9481;48.796;9.210;2022-09-09T07:16:25;20.80;52.80
18703;DHT22;9481;48.796;9.210;2022-09-09T07:18:53;20.90;52.80
18703;DHT22;9481;48.796;9.210;2022-09-09T07:21:24;20.90;52.70
18703;DHT22;9481;48.796;9.210;2022-09-09T07:23:52;21.00;52.80
18703;DHT22;9481;48.796;9.210;2022-09-09T07:26:20;21.00;52.80
18703;DHT22;9481;48.796;9.210;2022-09-09T07:28:48;21.10;53.00
18703;DHT22;9481;48.796;9.210;2022-09-09T07:31:16;21.20;53.30
18703;DHT22;9481;48.796;9.210;2022-09-09T07:33:47;21.30;53.30
18703;DHT22;9481;48.796;9.210;2022-09-09T07:36:25;21.40;53.20
18703;DHT22;9481;48.796;9.210;2022-09-09T07:39:00;21.50;53.20
18703;DHT22;9481;48.796;9.210;2022-09-09T07:42:04;21.60;52.90
18703;DHT22;9481;48.796;9.210;2022-09-09T07:44:24;21.70;52.60
18703;DHT22;9481;48.796;9.210;2022-09-09T07:46:50;21.70;52.70
18703;DHT22;9481;48.796;9.210;2022-09-09T07:49:16;21.90;52.90
18703;DHT22;9481;48.796;9.210;2022-09-09T07:51:45;22.00;52.80
18703;DHT22;9481;48.796;9.210;2022-09-09T07:54:14;22.10;52.60
18703;DHT22;9481;48.796;9.210;2022-09-09T07:56:41;22.20;52.30
18703;DHT22;9481;48.796;9.210;2022-09-09T07:59:08;22.30;52.50
18703;DHT22;9481;48.796;9.210;2022-09-09T08:01:37;22.50;52.20
18703;DHT22;9481;48.796;9.210;2022-09-09T08:04:13;22.60;52.30
18703;DHT22;9481;48.796;9.210;2022-09-09T08:06:51;22.80;52.10
18703;DHT22;9481;48.796;9.210;2022-09-09T08:09:19;23.00;52.00
18703;DHT22;9481;48.796;9.210;2022-09-09T08:11:46;23.10;51.70
18703;DHT22;9481;48.796;9.210;2022-09-09T08:14:12;23.30;51.40
18703;DHT22;9481;48.796;9.210;2022-09-09T08:16:42;23.30;50.80
18703;DHT22;9481;48.796;9.210;2022-09-09T08:19:09;23.40;50.50
18703;DHT22;9481;48.796;9.210;2022-09-09T08:21:37;23.50;50.40
18703;DHT22;9481;48.796;9.210;2022-09-09T08:24:07;23.50;50.30
18703;DHT22;9481;48.796;9.210;2022-09-09T08:26:40;23.60;50.40
18703;DHT22;9481;48.796;9.210;2022-09-09T08:29:09;23.60;50.30
18703;DHT22;9481;48.796;9.210;2022-09-09T08:31:38;23.70;50.20
18703;DHT22;9481;48.796;9.210;2022-09-09T08:34:08;23.80;50.30
18703;DHT22;9481;48.796;9.210;2022-09-09T08:36:40;23.90;50.10
18703;DHT22;9481;48.796;9.210;2022-09-09T08:39:10;24.00;49.80
18703;DHT22;9481;48.796;9.210;2022-09-09T08:55:50;24.40;48.20
18703;DHT22;9481;48.796;9.210;2022-09-09T08:58:22;24.50;48.10
18703;DHT22;9481;48.796;9.210;2022-09-09T09:01:29;24.50;48.50
18703;DHT22;9481;48.796;9.210;2022-09-09T09:04:19;24.60;48.50
18703;DHT22;9481;48.796;9.210;2022-09-09T09:07:18;24.80;48.30
18703;DHT22;9481;48.796;9.210;2022-09-09T09:12:59;25.10;48.00
18703;DHT22;9481;48.796;9.210;2022-09-09T09:15:31;25.20;47.70
18703;DHT22;9481;48.796;9.210;2022-09-09T09:18:02;25.40;47.20
18703;DHT22;9481;48.796;9.210;2022-09-09T09:23:57;25.60;45.80
18703;DHT22;9481;48.796;9.210;2022-09-09T09:26:33;25.80;46.10
18703;DHT22;9481;48.796;9.210;2022-09-09T09:29:09;25.90;45.90
18703;DHT22;9481;48.796;9.210;2022-09-09T09:31:37;25.80;44.70
18703;DHT22;9481;48.796;9.210;2022-09-09T09:34:03;25.70;44.60
18703;DHT22;9481;48.796;9.210;2022-09-09T09:36:41;25.60;45.30
18703;DHT22;9481;48.796;9.210;2022-09-09T09:39:23;25.40;47.20
18703;DHT22;9481;48.796;9.210;2022-09-09T09:41:57;25.20;47.00
18703;DHT22;9481;48.796;9.210;2022-09-09T09:46:51;24.80;47.70
18703;DHT22;9481;48.796;9.210;2022-09-09T09:49:18;24.80;47.90
18703;DHT22;9481;48.796;9.210;2022-09-09T09:51:44;24.80;48.10
18703;DHT22;9481;48.796;9.210;2022-09-09T09:56:38;24.80;49.30
18703;DHT22;9481;48.796;9.210;2022-09-09T09:59:05;25.00;49.60
18703;DHT22;9481;48.796;9.210;2022-09-09T10:01:44;25.10;49.80
18703;DHT22;9481;48.796;9.210;2022-09-09T10:04:23;25.30;49.00
18703;DHT22;9481;48.796;9.210;2022-09-09T10:06:49;25.40;48.20
18703;DHT22;9481;48.796;9.210;2022-09-09T10:09:29;25.60;48.70
18703;DHT22;9481;48.796;9.210;2022-09-09T10:12:24;25.70;47.90
18703;DHT22;9481;48.796;9.210;2022-09-09T10:15:31;25.90;49.10
18703;DHT22;9481;48.796;9.210;2022-09-09T10:18:40;26.00;48.30
18703;DHT22;9481;48.796;9.210;2022-09-09T10:22:02;26.10;48.50
18703;DHT22;9481;48.796;9.210;2022-09-09T10:30:19;26.60;47.90
18703;DHT22;9481;48.796;9.210;2022-09-09T10:33:03;26.70;47.80
18703;DHT22;9481;48.796;9.210;2022-09-09T10:35:35;26.90;47.50
18703;DHT22;9481;48.796;9.210;2022-09-09T10:56:18;28.10;44.10
18703;DHT22;9481;48.796;9.210;2022-09-09T10:59:00;28.10;44.30
18703;DHT22;9481;48.796;9.210;2022-09-09T11:01:48;28.10;43.40
18703;DHT22;9481;48.796;9.210;2022-09-09T11:04:35;28.10;43.30
18703;DHT22;9481;48.796;9.210;2022-09-09T11:07:12;28.10;44.00
18703;DHT22;9481;48.796;9.210;2022-09-09T11:09:49;28.10;43.20
18703;DHT22;9481;48.796;9.210;2022-09-09T11:12:23;28.20;43.70
18703;DHT22;9481;48.796;9.210;2022-09-09T11:15:04;28.20;43.70
18703;DHT22;9481;48.796;9.210;2022-09-09T11:17:50;28.20;42.60
18703;DHT22;9481;48.796;9.210;2022-09-09T11:20:19;28.10;42.10
18703;DHT22;9481;48.796;9.210;2022-09-09T11:22:57;27.90;42.40
18703;DHT22;9481;48.796;9.210;2022-09-09T11:25:36;27.70;42.20
18703;DHT22;9481;48.796;9.210;2022-09-09T11:28:24;27.40;42.00
18703;DHT22;9481;48.796;9.210;2022-09-09T11:34:39;26.90;41.90
18703;DHT22;9481;48.796;9.210;2022-09-09T11:40:28;26.30;40.80
18703;DHT22;9481;48.796;9.210;2022-09-09T11:43:03;26.00;41.10
18703;DHT22;9481;48.796;9.210;2022-09-09T11:45:39;25.80;41.10
18703;DHT22;9481;48.796;9.210;2022-09-09T11:51:06;25.50;41.50
18703;DHT22;9481;48.796;9.210;2022-09-09T11:53:53;25.30;41.40
18703;DHT22;9481;48.796;9.210;2022-09-09T11:56:44;25.20;41.60
18703;DHT22;9481;48.796;9.210;2022-09-09T11:59:30;25.20;42.40
18703;DHT22;9481;48.796;9.210;2022-09-09T12:02:12;25.20;42.40
18703;DHT22;9481;48.796;9.210;2022-09-09T12:04:46;25.30;42.10
18703;DHT22;9481;48.796;9.210;2022-09-09T12:07:41;25.40;42.40
18703;DHT22;9481;48.796;9.210;2022-09-09T12:12:46;25.70;41.10
18703;DHT22;9481;48.796;9.210;2022-09-09T12:17:45;25.70;40.60
18703;DHT22;9481;48.796;9.210;2022-09-09T12:23:37;25.70;40.40
18703;DHT22;9481;48.796;9.210;2022-09-09T12:32:00;25.80;40.70
18703;DHT22;9481;48.796;9.210;2022-09-09T12:34:40;25.90;40.70
18703;DHT22;9481;48.796;9.210;2022-09-09T12:40:31;26.40;39.50
18703;DHT22;9481;48.796;9.210;2022-09-09T12:43:22;26.70;39.20
18703;DHT22;9481;48.796;9.210;2022-09-09T12:45:49;26.90;39.40
18703;DHT22;9481;48.796;9.210;2022-09-09T12:48:25;27.10;38.70
18703;DHT22;9481;48.796;9.210;2022-09-09T12:53:54;27.20;36.60
18703;DHT22;9481;48.796;9.210;2022-09-09T12:56:26;27.10;37.10
18703;DHT22;9481;48.796;9.210;2022-09-09T12:58:56;27.10;37.30
18703;DHT22;9481;48.796;9.210;2022-09-09T13:01:32;27.10;37.40
18703;DHT22;9481;48.796;9.210;2022-09-09T13:03:59;27.10;37.40
18703;DHT22;9481;48.796;9.210;2022-09-09T13:06:32;27.10;37.90
18703;DHT22;9481;48.796;9.210;2022-09-09T13:09:00;27.10;37.20
18703;DHT22;9481;48.796;9.210;2022-09-09T13:14:04;27.00;37.40
18703;DHT22;9481;48.796;9.210;2022-09-09T13:16:35;26.80;37.40
18703;DHT22;9481;48.796;9.210;2022-09-09T13:19:07;26.70;37.30
18703;DHT22;9481;48.796;9.210;2022-09-09T13:21:39;26.60;37.50
18703;DHT22;9481;48.796;9.210;2022-09-09T13:24:21;26.50;38.10
18703;DHT22;9481;48.796;9.210;2022-09-09T13:27:50;26.50;38.40
18703;DHT22;9481;48.796;9.210;2022-09-09T13:29:54;26.40;38.10
18703;DHT22;9481;48.796;9.210;2022-09-09T13:32:23;26.50;38.80
18703;DHT22;9481;48.796;9.210;2022-09-09T13:35:00;26.60;38.80
18703;DHT22;9481;48.796;9.210;2022-09-09T13:37:35;26.80;38.60
18703;DHT22;9481;48.796;9.210;2022-09-09T13:40:04;27.00;37.50
18703;DHT22;9481;48.796;9.210;2022-09-09T13:42:34;27.20;37.80
18703;DHT22;9481;48.796;9.210;2022-09-09T13:45:05;27.30;37.30
18703;DHT22;9481;48.796;9.210;2022-09-09T13:47:35;27.50;37.00
18703;DHT22;9481;48.796;9.210;2022-09-09T13:50:21;27.60;36.40
18703;DHT22;9481;48.796;9.210;2022-09-09T13:52:56;27.60;36.00
18703;DHT22;9481;48.796;9.210;2022-09-09T13:55:25;27.60;36.00
18703;DHT22;9481;48.796;9.210;2022-09-09T13:58:00;27.50;36.30
18703;DHT22;9481;48.796;9.210;2022-09-09T14:00:32;27.50;36.00
18703;DHT22;9481;48.796;9.210;2022-09-09T14:02:59;27.50;36.40
18703;DHT22;9481;48.796;9.210;2022-09-09T14:05:27;27.50;36.30
18703;DHT22;9481;48.796;9.210;2022-09-09T14:07:55;27.60;36.40
18703;DHT22;9481;48.796;9.210;2022-09-09T14:10:21;27.60;36.20
18703;DHT22;9481;48.796;9.210;2022-09-09T14:12:47;27.60;36.30
18703;DHT22;9481;48.796;9.210;2022-09-09T14:15:13;27.60;36.30
18703;DHT22;9481;48.796;9.210;2022-09-09T14:17:39;27.60;36.40
18703;DHT22;9481;48.796;9.210;2022-09-09T14:20:06;27.60;36.70
18703;DHT22;9481;48.796;9.210;2022-09-09T14:22:35;27.70;36.40
18703;DHT22;9481;48.796;9.210;2022-09-09T14:25:02;27.80;35.90
18703;DHT22;9481;48.796;9.210;2022-09-09T14:27:28;27.90;35.30
18703;DHT22;9481;48.796;9.210;2022-09-09T14:29:55;28.00;35.30
18703;DHT22;9481;48.796;9.210;2022-09-09T14:32:21;28.00;35.20
18703;DHT22;9481;48.796;9.210;2022-09-09T14:34:47;28.10;34.90
18703;DHT22;9481;48.796;9.210;2022-09-09T14:37:15;28.10;34.70
18703;DHT22;9481;48.796;9.210;2022-09-09T14:39:42;28.10;34.60
18703;DHT22;9481;48.796;9.210;2022-09-09T14:42:13;28.10;34.60
18703;DHT22;9481;48.796;9.210;2022-09-09T14:44:39;28.10;33.60
18703;DHT22;9481;48.796;9.210;2022-09-09T14:47:06;28.00;32.60
18703;DHT22;9481;48.796;9.210;2022-09-09T14:49:33;27.90;32.70
18703;DHT22;9481;48.796;9.210;2022-09-09T14:51:59;27.80;32.80
18703;DHT22;9481;48.796;9.210;2022-09-09T14:54:26;27.70;32.70
18703;DHT22;9481;48.796;9.210;2022-09-09T14:56:51;27.70;32.60
18703;DHT22;9481;48.796;9.210;2022-09-09T14:59:17;27.60;32.60
18703;DHT22;9481;48.796;9.210;2022-09-09T15:01:43;27.50;33.60
18703;DHT22;9481;48.796;9.210;2022-09-09T15:04:12;27.50;33.50
18703;DHT22;9481;48.796;9.210;2022-09-09T15:06:40;27.40;33.30
18703;DHT22;9481;48.796;9.210;2022-09-09T15:09:08;27.40;33.10
18703;DHT22;9481;48.796;9.210;2022-09-09T15:11:35;27.30;33.30
18703;DHT22;9481;48.796;9.210;2022-09-09T15:14:06;27.30;33.30
18703;DHT22;9481;48.796;9.210;2022-09-09T15:16:34;27.20;33.10
18703;DHT22;9481;48.796;9.210;2022-09-09T15:19:00;27.10;33.40
18703;DHT22;9481;48.796;9.210;2022-09-09T15:21:30;27.10;33.50
18703;DHT22;9481;48.796;9.210;2022-09-09T15:23:58;27.00;33.70
18703;DHT22;9481;48.796;9.210;2022-09-09T15:26:25;26.90;33.80
18703;DHT22;9481;48.796;9.210;2022-09-09T15:28:51;26.90;33.90
18703;DHT22;9481;48.796;9.210;2022-09-09T15:31:22;26.80;34.20
18703;DHT22;9481;48.796;9.210;2022-09-09T15:33:57;26.80;34.50
18703;DHT22;9481;48.796;9.210;2022-09-09T15:36:30;26.70;35.60
18703;DHT22;9481;48.796;9.210;2022-09-09T15:38:58;26.70;34.90
18703;DHT22;9481;48.796;9.210;2022-09-09T15:41:25;26.60;35.30
18703;DHT22;9481;48.796;9.210;2022-09-09T15:43:54;26.60;35.20
18703;DHT22;9481;48.796;9.210;2022-09-09T15:46:35;26.60;36.00
18703;DHT22;9481;48.796;9.210;2022-09-09T15:49:20;26.50;35.30
18703;DHT22;9481;48.796;9.210;2022-09-09T15:51:53;26.40;35.00
18703;DHT22;9481;48.796;9.210;2022-09-09T15:54:22;26.30;34.70
18703;DHT22;9481;48.796;9.210;2022-09-09T15:56:54;26.20;34.10
18703;DHT22;9481;48.796;9.210;2022-09-09T15:59:22;26.00;34.30
18703;DHT22;9481;48.796;9.210;2022-09-09T16:01:48;25.90;34.60
18703;DHT22;9481;48.796;9.210;2022-09-09T16:04:17;25.80;35.00
18703;DHT22;9481;48.796;9.210;2022-09-09T16:06:49;25.70;35.10
18703;DHT22;9481;48.796;9.210;2022-09-09T16:09:16;25.60;35.10
18703;DHT22;9481;48.796;9.210;2022-09-09T16:11:42;25.50;35.20
18703;DHT22;9481;48.796;9.210;2022-09-09T16:14:08;25.40;35.20
18703;DHT22;9481;48.796;9.210;2022-09-09T16:16:34;25.30;35.30
18703;DHT22;9481;48.796;9.210;2022-09-09T16:19:06;25.20;35.40
18703;DHT22;9481;48.796;9.210;2022-09-09T16:21:37;25.20;35.60
18703;DHT22;9481;48.796;9.210;2022-09-09T16:24:14;25.10;35.70
18703;DHT22;9481;48.796;9.210;2022-09-09T16:26:45;25.00;36.00
18703;DHT22;9481;48.796;9.210;2022-09-09T16:29:13;24.90;36.30
18703;DHT22;9481;48.796;9.210;2022-09-09T16:31:40;24.80;36.40
18703;DHT22;9481;48.796;9.210;2022-09-09T16:34:07;24.80;36.50
18703;DHT22;9481;48.796;9.210;2022-09-09T16:36:36;24.80;36.70
18703;DHT22;9481;48.796;9.210;2022-09-09T16:39:06;24.70;36.80
18703;DHT22;9481;48.796;9.210;2022-09-09T16:41:35;24.70;37.20
18703;DHT22;9481;48.796;9.210;2022-09-09T16:44:06;24.70;37.10
18703;DHT22;9481;48.796;9.210;2022-09-09T16:46:39;24.70;37.20
18703;DHT22;9481;48.796;9.210;2022-09-09T16:49:08;24.70;37.60
18703;DHT22;9481;48.796;9.210;2022-09-09T16:51:38;24.70;37.70
18703;DHT22;9481;48.796;9.210;2022-09-09T16:54:14;24.70;38.00
18703;DHT22;9481;48.796;9.210;2022-09-09T16:56:44;24.60;38.10
18703;DHT22;9481;48.796;9.210;2022-09-09T16:59:14;24.60;38.10
18703;DHT22;9481;48.796;9.210;2022-09-09T17:01:42;24.50;38.70
18703;DHT22;9481;48.796;9.210;2022-09-09T17:04:15;24.50;38.00
18703;DHT22;9481;48.796;9.210;2022-09-09T17:06:50;24.50;38.50
18703;DHT22;9481;48.796;9.210;2022-09-09T17:09:18;24.40;38.50
18703;DHT22;9481;48.796;9.210;2022-09-09T17:11:46;24.30;38.10
18703;DHT22;9481;48.796;9.210;2022-09-09T17:14:16;24.30;38.20
18703;DHT22;9481;48.796;9.210;2022-09-09T17:16:43;24.30;38.30
18703;DHT22;9481;48.796;9.210;2022-09-09T17:19:10;24.20;38.20
18703;DHT22;9481;48.796;9.210;2022-09-09T17:21:37;24.20;38.10
18703;DHT22;9481;48.796;9.210;2022-09-09T17:24:03;24.10;38.20
18703;DHT22;9481;48.796;9.210;2022-09-09T17:26:31;24.10;38.30
18703;DHT22;9481;48.796;9.210;2022-09-09T17:29:00;24.10;38.40
18703;DHT22;9481;48.796;9.210;2022-09-09T17:31:27;24.00;38.50
18703;DHT22;9481;48.796;9.210;2022-09-09T17:33:55;23.90;38.60
18703;DHT22;9481;48.796;9.210;2022-09-09T17:36:23;23.90;38.70
18703;DHT22;9481;48.796;9.210;2022-09-09T17:38:53;23.80;38.80
18703;DHT22;9481;48.796;9.210;2022-09-09T17:41:25;23.80;39.10
18703;DHT22;9481;48.796;9.210;2022-09-09T17:43:53;23.80;39.40
18703;DHT22;9481;48.796;9.210;2022-09-09T17:46:34;23.70;39.40
18703;DHT22;9481;48.796;9.210;2022-09-09T17:49:05;23.60;39.80
18703;DHT22;9481;48.796;9.210;2022-09-09T17:51:34;23.60;39.90
18703;DHT22;9481;48.796;9.210;2022-09-09T17:54:03;23.60;39.90
18703;DHT22;9481;48.796;9.210;2022-09-09T17:56:35;23.50;39.90
18703;DHT22;9481;48.796;9.210;2022-09-09T17:59:05;23.50;39.90
18703;DHT22;9481;48.796;9.210;2022-09-09T18:01:35;23.50;40.20
18703;DHT22;9481;48.796;9.210;2022-09-09T18:04:04;23.40;40.30
18703;DHT22;9481;48.796;9.210;2022-09-09T18:06:36;23.40;40.40
18703;DHT22;9481;48.796;9.210;2022-09-09T18:09:07;23.40;40.50
18703;DHT22;9481;48.796;9.210;2022-09-09T18:11:37;23.30;40.50
18703;DHT22;9481;48.796;9.210;2022-09-09T18:14:07;23.30;40.70